Nancy-Ochey (BA 133) Air Base

Airport
ICAO code: 
LFSO
Summary
ICAO Region: 
EUR
Territory: 
Location: 
, Lorraine
Serving: 
Nancy
Elevation: 
1106 ft
Coordinates: 
Aerial View: 
48° 34' 59.002" N, 5° 57' 18" E
Metar
Observation
LFSO 302130Z AUTO 22020KT 5000 BR OVC005 04/04 Q1015 TEMPO DZ BECMG 23015G25KT
Station
Nancy / Ochey
Date/Time
2021-11-30 21:30:00
Wind direction
220°
Wind speed
20 kts
Lowest cloud amount
overcast
Temperature
4°C
Dew point
4°C
Humidity
100%
QNH
1015 hPa
Weather condition
n/a

Runways

Designator Length Width Surface Rops
2/20 2401 45 CON No/No
Airport map: 
Aerial View: 

SKYbrary Partners:

Safety knowledge contributed by: